Keeler Bay, Vermont
Current Conditions -  °F | °C
As of 6:53 PM on Friday 24 Oct 2014 (Local Time) from KPBG Reporting Station
Overcast Overcast  
Wind Chill: 47°   Ceiling: 4900
Heat Index: 49°   Visibility: 10mi
Dew Point: 41°   Wind: 5mph
Humidity: 74%   Direction: 270°W
Pressure: 29.84"   Gusts: NA
Location:  44.6397°N, 73.3099°W
Report Text: KPBG 242253Z AUTO 27004KT 10SM OVC049 09/05 A2984 RMK AO2 SLP107 T00940050
Loading
Personal Weather Stations






























Interactive Weather Map
Tropical Storm Tracking
New forecast layout! Learn more

10-Day Weather Forecast

Advertisements
Track Severe Weather on mobile